createdAt,value
2018-06-20T00:01:21.784Z,33.70
2018-06-20T00:03:49.322Z,36.10
2018-06-20T00:06:21.224Z,35.70
2018-06-20T00:08:52.672Z,34.10
2018-06-20T00:11:24.506Z,34.30
2018-06-20T00:13:53.197Z,35.90
2018-06-20T00:18:55.039Z,37.40
2018-06-20T00:21:22.537Z,37.90
2018-06-20T00:23:50.104Z,36.60
2018-06-20T00:26:17.609Z,36.00
2018-06-20T00:28:50.806Z,38.00
2018-06-20T00:31:18.352Z,37.20
2018-06-20T00:33:45.898Z,37.70
2018-06-20T00:36:13.455Z,37.80
2018-06-20T00:38:41.034Z,38.40
2018-06-20T00:41:08.846Z,37.40
2018-06-20T00:43:36.442Z,37.70
2018-06-20T00:46:05.822Z,37.30
2018-06-20T00:48:33.381Z,36.90
2018-06-20T00:51:00.902Z,37.60
2018-06-20T00:53:28.515Z,40.30
2018-06-20T00:56:09.444Z,38.30
2018-06-20T00:58:36.902Z,38.60
2018-06-20T01:01:04.658Z,37.80
2018-06-20T01:03:32.250Z,41.00
2018-06-20T01:05:59.821Z,40.00
2018-06-20T01:08:32.325Z,40.30
2018-06-20T01:10:59.950Z,39.70
2018-06-20T01:13:27.513Z,40.10
2018-06-20T01:15:55.087Z,40.30
2018-06-20T01:18:22.647Z,40.90
2018-06-20T01:20:50.238Z,40.90
2018-06-20T01:23:22.819Z,41.40
2018-06-20T01:25:50.945Z,40.90
2018-06-20T01:28:20.636Z,42.10
2018-06-20T01:30:49.446Z,41.60
2018-06-20T01:33:17.318Z,40.80
2018-06-20T01:35:49.877Z,40.80
2018-06-20T01:38:17.432Z,41.90
2018-06-20T01:40:44.926Z,42.20
2018-06-20T01:43:12.499Z,42.40
2018-06-20T01:45:40.102Z,42.30
2018-06-20T01:48:08.204Z,42.80
2018-06-20T01:50:39.953Z,43.10
2018-06-20T01:53:07.656Z,43.90
2018-06-20T01:55:35.305Z,43.20
2018-06-20T01:58:02.851Z,43.20
2018-06-20T02:00:30.602Z,43.90
2018-06-20T02:02:58.034Z,44.10
2018-06-20T02:05:25.366Z,43.30
2018-06-20T02:07:52.731Z,43.70
2018-06-20T02:10:20.583Z,43.00
2018-06-20T02:12:48.130Z,44.70
2018-06-20T02:15:15.918Z,43.10
2018-06-20T02:17:43.603Z,44.00
2018-06-20T02:20:11.151Z,44.80
2018-06-20T02:22:38.691Z,44.30
2018-06-20T02:25:06.587Z,44.50
2018-06-20T02:27:34.182Z,45.50
2018-06-20T02:30:02.191Z,45.20
2018-06-20T02:32:29.735Z,45.50
2018-06-20T02:34:57.444Z,45.40
2018-06-20T02:37:24.857Z,45.70
2018-06-20T02:39:52.326Z,45.40
2018-06-20T02:42:19.674Z,46.50
2018-06-20T02:44:47.184Z,46.10
2018-06-20T02:47:14.819Z,46.00
2018-06-20T02:49:42.246Z,46.20
2018-06-20T02:52:09.981Z,46.70
2018-06-20T02:54:37.558Z,47.30
2018-06-20T02:57:05.178Z,47.40
2018-06-20T02:59:32.935Z,47.50
2018-06-20T03:02:00.503Z,46.60
2018-06-20T03:04:28.434Z,47.70
2018-06-20T03:09:30.849Z,49.20
2018-06-20T03:11:58.782Z,49.60
2018-06-20T03:14:26.354Z,49.40
2018-06-20T03:16:53.910Z,49.90
2018-06-20T03:19:27.599Z,50.20
2018-06-20T03:21:54.942Z,49.20
2018-06-20T03:24:22.559Z,48.80
2018-06-20T03:26:49.997Z,48.30
2018-06-20T03:29:17.672Z,48.80
2018-06-20T03:31:49.443Z,48.30
2018-06-20T03:34:16.785Z,48.10
2018-06-20T03:36:44.393Z,47.90
2018-06-20T03:39:11.904Z,50.20
2018-06-20T03:41:39.721Z,50.00
2018-06-20T03:44:07.313Z,50.70
2018-06-20T03:46:36.818Z,51.40
2018-06-20T03:49:04.529Z,51.20
2018-06-20T03:51:32.103Z,50.20
2018-06-20T03:53:59.965Z,50.60
2018-06-20T03:56:27.503Z,50.30
2018-06-20T03:59:00.511Z,50.50
2018-06-20T04:01:28.079Z,49.20
2018-06-20T04:03:55.727Z,47.80
2018-06-20T04:06:23.212Z,47.30
2018-06-20T04:08:50.726Z,46.40
2018-06-20T04:11:20.947Z,45.60
2018-06-20T04:13:50.587Z,46.30
2018-06-20T04:16:18.251Z,45.60
2018-06-20T04:18:45.690Z,46.40
2018-06-20T04:21:14.273Z,45.50
2018-06-20T04:23:46.343Z,45.10
2018-06-20T04:26:13.759Z,43.00
2018-06-20T04:28:41.119Z,45.10
2018-06-20T04:31:09.340Z,44.20
2018-06-20T04:33:37.556Z,44.70
2018-06-20T04:36:07.083Z,45.30
2018-06-20T04:38:37.089Z,45.20
2018-06-20T04:41:04.437Z,44.50
2018-06-20T04:43:31.790Z,44.70
2018-06-20T04:45:59.155Z,44.20
2018-06-20T04:48:26.589Z,45.30
2018-06-20T04:53:26.362Z,44.50
2018-06-20T04:55:53.826Z,44.10
2018-06-20T04:58:21.234Z,45.00
2018-06-20T05:00:48.582Z,44.80
2018-06-20T05:03:16.047Z,44.30
2018-06-20T05:05:48.038Z,44.00
2018-06-20T05:08:15.514Z,44.60
2018-06-20T05:10:42.849Z,43.20
2018-06-20T05:13:10.308Z,43.80
2018-06-20T05:15:37.659Z,43.10
2018-06-20T05:18:04.987Z,42.70
2018-06-20T05:20:32.441Z,41.20
2018-06-20T05:23:02.925Z,42.00
2018-06-20T05:25:30.298Z,41.80
2018-06-20T05:27:57.636Z,41.80
2018-06-20T05:30:24.975Z,42.70
2018-06-20T05:32:52.342Z,42.50
2018-06-20T05:35:20.012Z,40.80
2018-06-20T05:37:50.874Z,39.70
2018-06-20T05:40:18.241Z,39.30
2018-06-20T05:42:45.598Z,38.40
2018-06-20T05:45:13.050Z,38.60
2018-06-20T05:50:07.915Z,39.20
2018-06-20T05:52:36.696Z,38.10
2018-06-20T05:55:04.024Z,38.20
2018-06-20T05:57:31.379Z,38.40
2018-06-20T05:59:58.705Z,37.30
2018-06-20T06:02:26.057Z,37.00
2018-06-20T06:04:53.423Z,37.00
2018-06-20T06:09:52.449Z,35.10
2018-06-20T06:12:19.852Z,34.50
2018-06-20T06:14:47.229Z,34.00
2018-06-20T06:17:14.752Z,34.90
2018-06-20T06:19:42.069Z,35.10
2018-06-20T06:22:13.036Z,34.10
2018-06-20T06:24:40.837Z,34.90
2018-06-20T06:27:08.375Z,35.00
2018-06-20T06:29:35.758Z,32.50
2018-06-20T06:32:03.228Z,31.20
2018-06-20T06:34:30.588Z,32.40
2018-06-20T06:36:59.862Z,32.30
2018-06-20T06:39:27.538Z,31.60
2018-06-20T06:41:54.911Z,30.00
2018-06-20T06:44:22.482Z,30.90
2018-06-20T06:46:50.078Z,30.10
2018-06-20T06:49:22.466Z,30.20
2018-06-20T06:51:49.837Z,30.80
2018-06-20T06:54:17.185Z,29.30
2018-06-20T06:56:45.296Z,28.60
2018-06-20T06:59:12.638Z,28.20
2018-06-20T07:01:40.009Z,27.50
2018-06-20T07:04:09.285Z,28.40
2018-06-20T07:06:36.771Z,28.20
2018-06-20T07:09:06.415Z,27.60
2018-06-20T07:11:33.746Z,27.60
2018-06-20T07:14:01.128Z,27.80
2018-06-20T07:16:33.965Z,27.10
2018-06-20T07:19:01.360Z,27.60
2018-06-20T07:21:28.769Z,26.30
2018-06-20T07:23:56.139Z,23.30
2018-06-20T07:26:23.685Z,22.60
2018-06-20T07:28:51.202Z,22.20
2018-06-20T07:31:18.560Z,22.60
2018-06-20T07:33:45.898Z,22.70
2018-06-20T07:36:13.285Z,20.40
2018-06-20T07:38:40.638Z,20.30
2018-06-20T07:41:08.166Z,21.50
2018-06-20T07:43:35.488Z,22.10
2018-06-20T07:46:02.875Z,20.40
2018-06-20T07:48:30.225Z,19.10
2018-06-20T07:50:57.752Z,18.50
2018-06-20T07:53:25.122Z,18.10
2018-06-20T07:55:52.491Z,16.10
2018-06-20T07:58:25.448Z,14.40
2018-06-20T08:01:56.835Z,13.00
2018-06-20T08:04:30.039Z,14.20
2018-06-20T08:07:03.602Z,14.20
2018-06-20T08:09:36.762Z,15.20
2018-06-20T08:12:09.932Z,15.90
2018-06-20T08:14:43.073Z,13.80
2018-06-20T08:17:16.646Z,5.70
2018-06-20T08:19:50.322Z,1.00
2018-06-20T08:22:19.170Z,1.00
2018-06-20T08:25:02.327Z,1.00
2018-06-20T08:27:31.203Z,1.00
2018-06-20T08:29:59.831Z,1.00
2018-06-20T08:32:27.382Z,1.00
2018-06-20T08:34:54.928Z,1.00
2018-06-20T08:37:22.459Z,1.00
2018-06-20T08:39:50.166Z,1.00
2018-06-20T08:42:17.712Z,1.00
2018-06-20T08:44:45.266Z,1.00
2018-06-20T08:47:12.825Z,1.00
2018-06-20T08:49:40.300Z,1.00
2018-06-20T08:52:07.970Z,1.00
2018-06-20T08:54:36.148Z,1.00
2018-06-20T08:57:04.042Z,1.20
2018-06-20T08:59:31.599Z,1.30
2018-06-20T09:01:59.186Z,1.20
2018-06-20T09:04:32.287Z,1.60
2018-06-20T09:07:05.505Z,2.90
2018-06-20T09:09:38.779Z,4.50
2018-06-20T09:12:12.025Z,4.50
2018-06-20T09:14:45.390Z,4.90
2018-06-20T09:17:18.690Z,6.80
2018-06-20T09:19:48.723Z,8.30
2018-06-20T09:22:16.924Z,8.50
2018-06-20T09:24:44.824Z,8.80
2018-06-20T09:27:12.494Z,9.50
2018-06-20T09:29:40.084Z,3.60
2018-06-20T09:32:07.764Z,4.80
2018-06-20T09:34:35.517Z,2.80
2018-06-20T09:37:03.092Z,3.80
2018-06-20T09:39:30.743Z,3.20
2018-06-20T09:41:58.286Z,3.10
2018-06-20T09:44:26.362Z,1.00
2018-06-20T09:46:53.938Z,1.00
2018-06-20T09:49:21.466Z,1.80
2018-06-20T09:51:49.107Z,1.00
2018-06-20T09:54:16.701Z,2.10
2018-06-20T09:56:44.202Z,1.50
2018-06-20T09:59:19.508Z,1.50
2018-06-20T10:01:53.013Z,1.00
2018-06-20T10:04:26.197Z,1.00
2018-06-20T10:06:59.350Z,1.00
2018-06-20T10:09:32.618Z,1.00
2018-06-20T10:12:05.943Z,1.00
2018-06-20T10:14:33.532Z,1.00
2018-06-20T10:17:01.199Z,1.00
2018-06-20T10:19:28.817Z,1.00
2018-06-20T10:21:56.487Z,1.00
2018-06-20T10:24:24.041Z,1.30
2018-06-20T10:26:51.679Z,1.00
2018-06-20T10:29:19.696Z,1.00
2018-06-20T10:31:47.377Z,1.00
2018-06-20T10:36:42.511Z,1.10
2018-06-20T10:39:10.926Z,1.10
2018-06-20T10:41:44.956Z,1.20
2018-06-20T10:44:14.655Z,1.30
2018-06-20T10:46:48.008Z,1.00
2018-06-20T10:49:16.850Z,1.00
2018-06-20T10:51:49.481Z,1.00
2018-06-20T10:54:17.077Z,1.00
2018-06-20T10:57:51.658Z,1.00
2018-06-20T11:00:24.833Z,1.00
2018-06-20T11:02:58.170Z,1.00
2018-06-20T11:05:32.410Z,1.00
2018-06-20T11:08:05.585Z,1.00
2018-06-20T11:10:38.766Z,1.00
2018-06-20T11:13:10.802Z,1.00
2018-06-20T11:15:38.179Z,1.00
2018-06-20T11:18:05.550Z,1.00
2018-06-20T11:20:38.674Z,1.00
2018-06-20T11:23:06.085Z,1.00
2018-06-20T11:25:37.221Z,1.00
2018-06-20T11:28:06.903Z,1.00
2018-06-20T11:30:34.325Z,1.00
2018-06-20T11:33:01.768Z,1.00
2018-06-20T11:35:29.138Z,1.00
2018-06-20T11:38:01.044Z,1.00
2018-06-20T11:40:28.492Z,1.00
2018-06-20T11:42:55.870Z,1.00
2018-06-20T11:45:25.094Z,1.00
2018-06-20T11:47:52.439Z,1.00
2018-06-20T11:50:25.076Z,1.00
2018-06-20T11:53:03.843Z,1.00
2018-06-20T11:55:36.164Z,1.00
2018-06-20T11:58:16.715Z,1.00
2018-06-20T12:05:59.596Z,1.00
2018-06-20T12:08:33.080Z,1.00
2018-06-20T12:13:11.140Z,1.00
2018-06-20T12:15:44.264Z,1.00
2018-06-20T12:18:21.329Z,1.00
2018-06-20T12:20:54.767Z,1.00
2018-06-20T12:26:06.407Z,1.00
2018-06-20T12:28:39.761Z,1.00
2018-06-20T12:31:13.209Z,1.00
2018-06-20T12:33:46.560Z,1.00
2018-06-20T12:36:19.862Z,1.00
2018-06-20T12:38:55.807Z,1.00
2018-06-20T12:41:29.041Z,1.00
2018-06-20T12:44:02.504Z,1.00
2018-06-20T12:46:41.996Z,1.00
2018-06-20T12:49:12.702Z,1.00
2018-06-20T12:51:40.319Z,1.00
2018-06-20T12:54:08.064Z,1.00
2018-06-20T12:56:40.767Z,1.00
2018-06-20T12:59:08.515Z,1.00
2018-06-20T13:04:03.695Z,1.00
2018-06-20T13:06:31.194Z,1.00
2018-06-20T13:08:58.820Z,1.00
2018-06-20T13:11:29.377Z,1.00
2018-06-20T13:13:56.953Z,1.00
2018-06-20T13:16:24.497Z,1.00
2018-06-20T13:18:57.257Z,1.00
2018-06-20T13:21:24.883Z,1.00
2018-06-20T13:23:55.946Z,1.00
2018-06-20T13:26:23.657Z,1.00
2018-06-20T13:28:51.651Z,1.00
2018-06-20T13:31:24.811Z,1.00
2018-06-20T13:34:00.457Z,1.00
2018-06-20T13:36:33.833Z,1.00
2018-06-20T13:39:06.855Z,1.00
2018-06-20T13:41:43.604Z,1.00
2018-06-20T13:44:11.234Z,1.00
2018-06-20T13:46:44.437Z,1.00
2018-06-20T13:49:11.862Z,1.00
2018-06-20T13:51:39.201Z,1.00
2018-06-20T13:54:10.171Z,1.00
2018-06-20T13:56:37.506Z,1.00
2018-06-20T13:59:05.047Z,1.00
2018-06-20T14:01:32.463Z,1.00
2018-06-20T14:03:59.949Z,1.00
2018-06-20T14:06:27.307Z,1.00
2018-06-20T14:08:54.803Z,1.00
2018-06-20T14:11:22.279Z,1.00
2018-06-20T14:13:49.728Z,1.00
2018-06-20T14:16:17.121Z,1.00
2018-06-20T14:18:44.479Z,1.00
2018-06-20T14:21:17.698Z,1.00
2018-06-20T14:23:45.051Z,1.00
2018-06-20T14:26:12.396Z,1.00
2018-06-20T14:28:39.771Z,1.00
2018-06-20T14:31:13.017Z,1.00
2018-06-20T14:33:45.922Z,1.00
2018-06-20T14:36:18.914Z,1.00
2018-06-20T14:39:51.352Z,1.00
2018-06-20T14:42:24.655Z,1.00
2018-06-20T14:44:56.782Z,1.00
2018-06-20T14:47:24.461Z,1.00
2018-06-20T14:49:53.655Z,1.00
2018-06-20T14:52:21.243Z,1.00
2018-06-20T14:54:48.881Z,1.00
2018-06-20T14:57:16.523Z,1.00
2018-06-20T14:59:44.095Z,1.00
2018-06-20T15:04:39.268Z,1.00
2018-06-20T15:07:06.855Z,1.00
2018-06-20T15:09:34.733Z,1.00
2018-06-20T15:12:02.327Z,1.00
2018-06-20T15:14:29.979Z,1.00
2018-06-20T15:17:03.210Z,1.00
2018-06-20T15:19:31.028Z,1.00
2018-06-20T15:21:58.930Z,1.00
2018-06-20T15:24:27.790Z,1.00
2018-06-20T15:27:01.060Z,1.00
2018-06-20T15:30:34.704Z,1.00
2018-06-20T15:33:07.890Z,1.00
2018-06-20T15:35:41.182Z,1.00
2018-06-20T15:38:14.932Z,1.00
2018-06-20T15:40:42.495Z,1.00
2018-06-20T15:43:10.055Z,1.00
2018-06-20T15:45:37.626Z,1.00
2018-06-20T15:48:05.613Z,1.00
2018-06-20T15:50:47.548Z,1.00
2018-06-20T15:53:14.966Z,1.00
2018-06-20T15:55:42.388Z,1.00
2018-06-20T15:58:09.905Z,1.00
2018-06-20T16:00:37.280Z,1.00
2018-06-20T16:03:04.618Z,1.00
2018-06-20T16:05:31.998Z,1.00
2018-06-20T16:07:59.446Z,1.00
2018-06-20T16:10:26.830Z,1.00
2018-06-20T16:12:54.238Z,1.00
2018-06-20T16:15:21.612Z,1.00
2018-06-20T16:17:48.980Z,1.00
2018-06-20T16:20:22.105Z,1.00
2018-06-20T16:22:55.074Z,1.00
2018-06-20T16:25:28.221Z,1.00
2018-06-20T16:28:01.522Z,1.00
2018-06-20T16:30:34.806Z,1.00
2018-06-20T16:33:02.221Z,1.00
2018-06-20T16:35:29.715Z,1.00
2018-06-20T16:37:57.174Z,1.00
2018-06-20T16:40:24.544Z,1.00
2018-06-20T16:42:52.037Z,1.00
2018-06-20T16:45:19.427Z,1.00
2018-06-20T16:47:46.770Z,1.00
2018-06-20T16:50:14.197Z,1.00
2018-06-20T16:52:41.551Z,1.00
2018-06-20T16:55:08.885Z,1.00
2018-06-20T16:57:38.579Z,1.00
2018-06-20T17:00:06.267Z,1.00
2018-06-20T17:02:38.144Z,1.00
2018-06-20T17:05:06.043Z,1.00
2018-06-20T17:07:33.357Z,1.00
2018-06-20T17:10:02.774Z,1.00
2018-06-20T17:12:35.848Z,1.00
2018-06-20T17:15:09.251Z,1.00
2018-06-20T17:17:45.667Z,1.00
2018-06-20T17:20:18.749Z,1.00
2018-06-20T17:22:51.681Z,1.00
2018-06-20T17:25:24.663Z,1.00
2018-06-20T17:27:52.186Z,1.00
2018-06-20T17:30:19.829Z,1.00
2018-06-20T17:32:47.717Z,1.00
2018-06-20T17:35:15.284Z,1.00
2018-06-20T17:37:47.689Z,1.00
2018-06-20T17:40:15.334Z,1.00
2018-06-20T17:42:42.956Z,1.00
2018-06-20T17:45:10.499Z,1.00
2018-06-20T17:47:38.007Z,1.00
2018-06-20T17:54:09.594Z,1.00
2018-06-20T17:56:42.271Z,1.00
2018-06-20T17:59:09.885Z,1.00
2018-06-20T18:01:37.493Z,1.00
2018-06-20T18:04:05.226Z,1.00
2018-06-20T18:11:52.764Z,1.00
2018-06-20T18:14:28.262Z,1.00
2018-06-20T18:16:58.475Z,1.00
2018-06-20T18:19:26.451Z,1.00
2018-06-20T18:21:54.045Z,1.00
2018-06-20T18:24:21.587Z,1.00
2018-06-20T18:26:49.089Z,1.00
2018-06-20T18:29:18.875Z,1.00
2018-06-20T18:31:46.427Z,1.00
2018-06-20T18:34:14.155Z,1.00
2018-06-20T18:36:41.743Z,1.00
2018-06-20T18:39:09.870Z,1.00
2018-06-20T18:41:37.715Z,1.00
2018-06-20T18:44:09.859Z,1.00
2018-06-20T18:46:37.421Z,1.00
2018-06-20T18:49:04.996Z,1.00
2018-06-20T18:51:32.701Z,1.00
2018-06-20T18:54:00.310Z,1.00
2018-06-20T18:56:30.935Z,1.00
2018-06-20T18:59:04.075Z,1.00
2018-06-20T19:03:40.996Z,1.00
2018-06-20T19:06:14.094Z,1.00
2018-06-20T19:08:47.171Z,1.00
2018-06-20T19:11:19.495Z,1.00
2018-06-20T19:13:46.845Z,1.00
2018-06-20T19:16:14.200Z,1.00
2018-06-20T19:18:41.591Z,1.00
2018-06-20T19:21:08.974Z,1.00
2018-06-20T19:23:36.326Z,1.00
2018-06-20T19:26:07.623Z,1.00
2018-06-20T19:28:34.974Z,1.00
2018-06-20T19:31:02.380Z,1.00
2018-06-20T19:33:29.729Z,1.00
2018-06-20T19:35:57.171Z,1.00
2018-06-20T19:38:24.530Z,1.00
2018-06-20T19:40:53.430Z,1.00
2018-06-20T19:43:21.511Z,1.00
2018-06-20T19:45:48.962Z,1.00
2018-06-20T19:48:16.342Z,1.00
2018-06-20T19:50:43.711Z,1.00
2018-06-20T19:53:15.294Z,1.00
2018-06-20T19:55:42.630Z,1.00
2018-06-20T19:58:10.017Z,1.00
2018-06-20T20:00:37.339Z,1.00
2018-06-20T20:03:04.739Z,1.00
2018-06-20T20:05:32.083Z,1.00
2018-06-20T20:08:02.236Z,1.00
2018-06-20T20:12:57.045Z,1.00
2018-06-20T20:15:24.377Z,1.00
2018-06-20T20:17:51.903Z,1.00
2018-06-20T20:20:19.273Z,1.00
2018-06-20T20:22:47.202Z,1.00
2018-06-20T20:25:14.575Z,1.00
2018-06-20T20:27:42.026Z,1.00
2018-06-20T20:30:12.734Z,1.00
2018-06-20T20:32:40.066Z,1.00
2018-06-20T20:35:07.408Z,1.00
2018-06-20T20:37:34.721Z,1.00
2018-06-20T20:40:02.195Z,1.00
2018-06-20T20:42:29.559Z,1.00
2018-06-20T20:44:58.855Z,1.00
2018-06-20T20:47:26.233Z,1.00
2018-06-20T20:49:53.580Z,1.00
2018-06-20T20:52:20.920Z,1.00
2018-06-20T20:54:48.248Z,1.00
2018-06-20T20:57:15.588Z,1.00
2018-06-20T20:59:47.791Z,1.00
2018-06-20T21:02:15.119Z,1.00
2018-06-20T21:04:42.554Z,1.00
2018-06-20T21:07:10.135Z,1.00
2018-06-20T21:09:37.566Z,1.00
2018-06-20T21:12:04.869Z,1.00
2018-06-20T21:14:37.034Z,1.00
2018-06-20T21:17:04.454Z,1.00
2018-06-20T21:19:31.779Z,1.10
2018-06-20T21:21:59.111Z,1.00
2018-06-20T21:24:26.464Z,1.00
2018-06-20T21:26:53.806Z,1.40
2018-06-20T21:29:21.210Z,1.00
2018-06-20T21:31:48.551Z,1.00
2018-06-20T21:34:17.204Z,1.10
2018-06-20T21:36:44.582Z,1.00
2018-06-20T21:39:11.955Z,1.40
2018-06-20T21:41:39.605Z,1.90
2018-06-20T21:44:07.008Z,1.90
2018-06-20T21:46:34.470Z,2.40
2018-06-20T21:49:01.960Z,2.00
2018-06-20T21:51:29.363Z,2.30
2018-06-20T21:53:56.686Z,2.80
2018-06-20T21:56:24.191Z,2.80
2018-06-20T21:58:51.499Z,2.40
2018-06-20T22:01:18.857Z,2.90
2018-06-20T22:03:46.235Z,2.70
2018-06-20T22:06:13.640Z,2.70
2018-06-20T22:08:40.973Z,3.20
2018-06-20T22:11:08.365Z,3.10
2018-06-20T22:13:37.347Z,3.50
2018-06-20T22:16:04.715Z,3.70
2018-06-20T22:18:32.936Z,3.30
2018-06-20T22:21:00.238Z,4.00
2018-06-20T22:23:27.582Z,4.20
2018-06-20T22:25:54.919Z,4.20
2018-06-20T22:28:22.601Z,4.60
2018-06-20T22:30:49.961Z,4.70
2018-06-20T22:33:17.341Z,4.90
2018-06-20T22:35:44.794Z,6.10
2018-06-20T22:38:12.218Z,5.90
2018-06-20T22:40:39.644Z,7.30
2018-06-20T22:43:06.992Z,6.20
2018-06-20T22:45:34.753Z,5.70
2018-06-20T22:48:02.105Z,5.30
2018-06-20T22:50:29.440Z,5.90
2018-06-20T22:52:56.752Z,6.00
2018-06-20T22:55:24.126Z,7.30
2018-06-20T22:57:51.644Z,7.10
2018-06-20T23:00:18.938Z,7.70
2018-06-20T23:02:46.363Z,7.10
2018-06-20T23:05:13.715Z,8.70
2018-06-20T23:07:41.047Z,9.10
2018-06-20T23:10:08.403Z,8.90
2018-06-20T23:12:35.744Z,8.40
2018-06-20T23:15:14.379Z,8.40
2018-06-20T23:20:09.363Z,9.60
2018-06-20T23:22:36.730Z,8.20
2018-06-20T23:25:04.203Z,8.50
2018-06-20T23:27:31.521Z,8.80
2018-06-20T23:29:58.898Z,9.00
2018-06-20T23:32:26.358Z,9.00
2018-06-20T23:34:53.695Z,9.00
2018-06-20T23:37:21.081Z,8.20
2018-06-20T23:39:48.423Z,8.30
2018-06-20T23:42:16.027Z,7.60
2018-06-20T23:44:43.369Z,8.60
2018-06-20T23:47:10.930Z,8.90
2018-06-20T23:49:38.319Z,8.10
2018-06-20T23:52:05.764Z,8.10
2018-06-20T23:54:33.102Z,8.20
2018-06-20T23:57:00.459Z,7.90
2018-06-20T23:59:27.791Z,7.60
